createdAt,value
2023-02-03T00:01:55.365Z,2.51
2023-02-03T00:04:21.761Z,2.62
2023-02-03T00:06:48.133Z,2.56
2023-02-03T00:09:14.512Z,2.49
2023-02-03T00:11:40.937Z,2.35
2023-02-03T00:14:07.303Z,2.60
2023-02-03T00:16:33.684Z,2.62
2023-02-03T00:19:00.076Z,2.47
2023-02-03T00:21:26.501Z,2.83
2023-02-03T00:23:52.933Z,2.68
2023-02-03T00:26:19.292Z,3.64
2023-02-03T00:28:45.667Z,6.02
2023-02-03T00:31:12.120Z,4.69
2023-02-03T00:33:38.554Z,2.78
2023-02-03T00:36:05.121Z,2.61
2023-02-03T00:38:31.526Z,2.56
2023-02-03T00:40:57.941Z,2.80
2023-02-03T00:43:24.331Z,2.67
2023-02-03T00:45:50.757Z,2.68
2023-02-03T00:48:18.917Z,2.64
2023-02-03T00:50:45.272Z,2.63
2023-02-03T00:53:11.663Z,2.33
2023-02-03T00:55:38.059Z,2.49
2023-02-03T00:58:04.449Z,2.61
2023-02-03T01:00:30.868Z,2.44
2023-02-03T01:02:57.249Z,2.32
2023-02-03T01:05:23.610Z,2.54
2023-02-03T01:07:49.988Z,2.39
2023-02-03T01:10:16.381Z,2.43
2023-02-03T01:12:42.749Z,2.59
2023-02-03T01:15:09.121Z,2.31
2023-02-03T01:17:35.496Z,2.34
2023-02-03T01:20:01.876Z,2.68
2023-02-03T01:22:28.231Z,2.40
2023-02-03T01:24:54.597Z,2.47
2023-02-03T01:27:20.970Z,2.40
2023-02-03T01:29:47.335Z,2.45
2023-02-03T01:32:13.686Z,2.38
2023-02-03T01:34:40.048Z,2.52
2023-02-03T01:37:06.512Z,2.38
2023-02-03T01:39:32.861Z,2.36
2023-02-03T01:41:59.299Z,2.59
2023-02-03T01:44:25.654Z,2.49
2023-02-03T01:46:52.141Z,2.24
2023-02-03T01:49:18.517Z,2.37
2023-02-03T01:51:44.907Z,2.45
2023-02-03T01:54:11.269Z,2.61
2023-02-03T01:56:37.645Z,2.66
2023-02-03T01:59:04.012Z,2.54
2023-02-03T02:01:30.470Z,2.59
2023-02-03T02:03:56.853Z,2.72
2023-02-03T02:06:23.254Z,2.64
2023-02-03T02:08:49.644Z,2.69
2023-02-03T02:11:16.018Z,2.78
2023-02-03T02:13:42.396Z,2.80
2023-02-03T02:16:08.836Z,2.70
2023-02-03T02:18:35.234Z,2.72
2023-02-03T02:21:01.615Z,2.90
2023-02-03T02:23:28.024Z,2.82
2023-02-03T02:25:54.391Z,2.60
2023-02-03T02:28:20.764Z,2.72
2023-02-03T02:30:47.176Z,2.38
2023-02-03T02:33:13.609Z,2.52
2023-02-03T02:35:40.006Z,2.46
2023-02-03T02:38:06.412Z,2.57
2023-02-03T02:40:32.811Z,2.23
2023-02-03T02:42:59.186Z,2.67
2023-02-03T02:45:25.601Z,2.35
2023-02-03T02:47:51.979Z,2.46
2023-02-03T02:50:18.364Z,2.52
2023-02-03T02:52:44.753Z,2.23
2023-02-03T02:55:11.198Z,2.08
2023-02-03T02:57:37.583Z,2.12
2023-02-03T03:00:03.977Z,2.37
2023-02-03T03:02:30.341Z,2.24
2023-02-03T03:04:56.779Z,2.42
2023-02-03T03:07:23.208Z,2.07
2023-02-03T03:09:49.602Z,2.11
2023-02-03T03:12:16.098Z,2.04
2023-02-03T03:14:42.476Z,1.99
2023-02-03T03:17:08.839Z,2.05
2023-02-03T03:19:35.238Z,2.08
2023-02-03T03:22:01.592Z,2.45
2023-02-03T03:24:27.983Z,3.61
2023-02-03T03:26:54.388Z,4.29
2023-02-03T03:29:20.795Z,5.28
2023-02-03T03:31:47.229Z,5.03
2023-02-03T03:34:13.677Z,4.75
2023-02-03T03:36:40.052Z,4.51
2023-02-03T03:39:06.434Z,4.69
2023-02-03T03:41:32.869Z,4.62
2023-02-03T03:43:59.267Z,4.32
2023-02-03T03:46:25.698Z,4.47
2023-02-03T03:48:52.073Z,4.91
2023-02-03T03:51:18.467Z,4.98
2023-02-03T03:53:44.932Z,4.52
2023-02-03T03:56:11.343Z,4.22
2023-02-03T03:58:37.721Z,4.49
2023-02-03T04:01:04.227Z,4.27
2023-02-03T04:03:30.756Z,4.24
2023-02-03T04:05:57.247Z,4.45
2023-02-03T04:08:23.699Z,4.64
2023-02-03T04:10:50.084Z,4.26
2023-02-03T04:13:16.460Z,4.65
2023-02-03T04:15:42.842Z,4.67
2023-02-03T04:18:09.198Z,4.63
2023-02-03T04:20:35.585Z,4.71
2023-02-03T04:23:01.900Z,4.70
2023-02-03T04:25:28.278Z,5.25
2023-02-03T04:27:54.689Z,7.19
2023-02-03T04:30:21.124Z,5.54
2023-02-03T04:32:47.498Z,5.48
2023-02-03T04:35:13.874Z,5.64
2023-02-03T04:37:40.250Z,5.34
2023-02-03T04:40:06.644Z,6.03
2023-02-03T04:42:33.028Z,5.99
2023-02-03T04:44:59.405Z,5.54
2023-02-03T04:47:25.768Z,5.46
2023-02-03T04:49:52.150Z,5.45
2023-02-03T04:52:18.506Z,5.66
2023-02-03T04:54:44.917Z,5.65
2023-02-03T04:57:11.299Z,5.78
2023-02-03T04:59:37.678Z,5.55
2023-02-03T05:02:04.060Z,5.58
2023-02-03T05:04:30.449Z,5.55
2023-02-03T05:06:57.765Z,5.35
2023-02-03T05:09:24.150Z,5.22
2023-02-03T05:11:50.526Z,4.92
2023-02-03T05:14:16.896Z,5.05
2023-02-03T05:16:43.336Z,5.76
2023-02-03T05:19:09.989Z,5.23
2023-02-03T05:21:36.512Z,5.01
2023-02-03T05:24:02.893Z,4.85
2023-02-03T05:26:29.275Z,4.62
2023-02-03T05:28:57.482Z,4.61
2023-02-03T05:31:24.226Z,4.11
2023-02-03T05:33:50.665Z,3.41
2023-02-03T05:36:17.101Z,3.41
2023-02-03T05:38:43.465Z,3.34
2023-02-03T05:41:09.829Z,3.54
2023-02-03T05:43:36.201Z,2.95
2023-02-03T05:46:02.636Z,3.32
2023-02-03T05:48:29.119Z,3.49
2023-02-03T05:50:55.476Z,3.44
2023-02-03T05:53:21.890Z,3.47
2023-02-03T05:55:48.278Z,7.60
2023-02-03T05:58:14.657Z,5.08
2023-02-03T06:00:41.048Z,3.71
2023-02-03T06:03:07.438Z,3.83
2023-02-03T06:05:33.877Z,3.62
2023-02-03T06:08:00.269Z,3.50
2023-02-03T06:10:26.913Z,4.48
2023-02-03T06:12:53.461Z,4.85
2023-02-03T06:15:19.833Z,4.11
2023-02-03T06:17:46.189Z,3.64
2023-02-03T06:20:12.581Z,3.61
2023-02-03T06:22:38.926Z,3.92
2023-02-03T06:25:05.322Z,3.79
2023-02-03T06:27:31.700Z,3.77
2023-02-03T06:29:58.084Z,3.59
2023-02-03T06:32:24.469Z,3.50
2023-02-03T06:34:50.831Z,3.44
2023-02-03T06:37:17.276Z,3.53
2023-02-03T06:39:43.658Z,3.17
2023-02-03T06:42:10.043Z,2.88
2023-02-03T06:44:36.445Z,3.09
2023-02-03T06:47:02.846Z,2.92
2023-02-03T06:49:29.227Z,2.87
2023-02-03T06:51:55.643Z,2.72
2023-02-03T06:54:22.029Z,2.98
2023-02-03T06:56:48.647Z,2.71
2023-02-03T06:59:14.995Z,2.78
2023-02-03T07:01:41.408Z,3.01
2023-02-03T07:04:07.819Z,2.91
2023-02-03T07:06:34.214Z,2.87
2023-02-03T07:09:01.846Z,3.26
2023-02-03T07:11:28.472Z,3.20
2023-02-03T07:13:54.885Z,3.38
2023-02-03T07:16:21.321Z,4.57
2023-02-03T07:18:48.519Z,3.85
2023-02-03T07:21:14.913Z,3.28
2023-02-03T07:23:41.283Z,3.36
2023-02-03T07:26:07.738Z,3.41
2023-02-03T07:28:34.108Z,3.25
2023-02-03T07:31:00.608Z,3.47
2023-02-03T07:33:27.141Z,3.55
2023-02-03T07:35:53.512Z,3.69
2023-02-03T07:38:19.900Z,3.53
2023-02-03T07:40:46.307Z,3.46
2023-02-03T07:43:12.673Z,3.41
2023-02-03T07:45:39.099Z,3.65
2023-02-03T07:48:05.493Z,3.51
2023-02-03T07:50:31.874Z,3.48
2023-02-03T07:52:58.367Z,3.51
2023-02-03T07:55:24.746Z,3.82
2023-02-03T07:57:51.125Z,3.84
2023-02-03T08:00:17.508Z,4.07
2023-02-03T08:02:43.888Z,4.30
2023-02-03T08:05:10.382Z,5.66
2023-02-03T08:07:36.865Z,5.58
2023-02-03T08:10:03.250Z,5.35
2023-02-03T08:12:29.677Z,4.77
2023-02-03T08:14:56.094Z,4.17
2023-02-03T08:17:22.500Z,3.85
2023-02-03T08:19:48.886Z,3.67
2023-02-03T08:22:15.351Z,3.94
2023-02-03T08:24:41.725Z,3.77
2023-02-03T08:27:08.105Z,3.86
2023-02-03T08:29:34.537Z,4.20
2023-02-03T08:32:00.949Z,4.41
2023-02-03T08:34:27.380Z,4.82
2023-02-03T08:36:53.759Z,5.15
2023-02-03T08:39:20.329Z,5.38
2023-02-03T08:41:46.708Z,6.11
2023-02-03T08:44:13.074Z,5.92
2023-02-03T08:46:39.519Z,6.30
2023-02-03T08:49:05.872Z,7.29
2023-02-03T08:51:32.238Z,6.39
2023-02-03T08:54:02.918Z,6.44
2023-02-03T08:56:29.327Z,6.59
2023-02-03T08:58:56.103Z,5.95
2023-02-03T09:01:22.598Z,6.13
2023-02-03T09:03:49.071Z,5.25
2023-02-03T09:06:15.451Z,5.26
2023-02-03T09:08:41.828Z,4.93
2023-02-03T09:11:08.306Z,4.53
2023-02-03T09:13:34.668Z,4.28
2023-02-03T09:16:01.057Z,4.02
2023-02-03T09:18:27.429Z,4.16
2023-02-03T09:20:53.809Z,3.94
2023-02-03T09:23:20.301Z,4.37
2023-02-03T09:25:49.383Z,4.81
2023-02-03T09:28:15.975Z,4.73
2023-02-03T09:30:42.421Z,4.62
2023-02-03T09:33:08.862Z,4.30
2023-02-03T09:35:35.221Z,4.65
2023-02-03T09:38:01.663Z,4.07
2023-02-03T09:40:28.380Z,4.72
2023-02-03T09:42:54.903Z,4.39
2023-02-03T09:45:21.285Z,4.48
2023-02-03T09:47:47.665Z,4.04
2023-02-03T09:50:14.063Z,3.92
2023-02-03T09:52:40.461Z,3.97
2023-02-03T09:55:06.841Z,4.36
2023-02-03T09:57:33.202Z,4.12
2023-02-03T09:59:59.568Z,4.32
2023-02-03T10:02:26.070Z,4.23
2023-02-03T10:04:52.447Z,4.69
2023-02-03T10:07:18.845Z,4.57
2023-02-03T10:09:45.231Z,4.59
2023-02-03T10:12:11.628Z,4.99
2023-02-03T10:14:38.044Z,4.96
2023-02-03T10:17:04.513Z,4.90
2023-02-03T10:19:30.979Z,4.75
2023-02-03T10:21:57.368Z,4.78
2023-02-03T10:24:23.740Z,4.96
2023-02-03T10:26:50.120Z,4.83
2023-02-03T10:29:16.478Z,4.99
2023-02-03T10:31:42.976Z,4.89
2023-02-03T10:34:09.441Z,5.10
2023-02-03T10:36:35.806Z,4.95
2023-02-03T10:39:02.226Z,4.65
2023-02-03T10:41:28.674Z,4.45
2023-02-03T10:43:57.323Z,4.73
2023-02-03T10:46:24.050Z,4.77
2023-02-03T10:48:50.470Z,4.72
2023-02-03T10:51:16.922Z,4.41
2023-02-03T10:53:43.355Z,4.57
2023-02-03T10:56:09.717Z,4.26
2023-02-03T10:58:36.115Z,4.32
2023-02-03T11:01:02.498Z,4.09
2023-02-03T11:03:28.919Z,4.51
2023-02-03T11:05:55.336Z,4.65
2023-02-03T11:08:21.771Z,5.05
2023-02-03T11:10:48.173Z,4.57
2023-02-03T11:13:14.576Z,4.25
2023-02-03T11:15:41.022Z,4.34
2023-02-03T11:18:07.422Z,4.17
2023-02-03T11:20:33.847Z,4.47
2023-02-03T11:23:00.207Z,4.60
2023-02-03T11:25:26.598Z,4.39
2023-02-03T11:27:53.029Z,4.68
2023-02-03T11:30:19.423Z,4.78
2023-02-03T11:32:45.815Z,4.51
2023-02-03T11:35:12.182Z,4.63
2023-02-03T11:37:38.560Z,4.90
2023-02-03T11:40:04.976Z,4.65
2023-02-03T11:42:31.352Z,4.28
2023-02-03T11:44:57.812Z,4.80
2023-02-03T11:47:24.199Z,5.12
2023-02-03T11:49:50.576Z,5.32
2023-02-03T11:52:16.969Z,4.88
2023-02-03T11:54:43.340Z,4.59
2023-02-03T11:57:09.740Z,4.58
2023-02-03T11:59:36.148Z,4.85
2023-02-03T12:02:02.540Z,5.24
2023-02-03T12:04:28.955Z,5.10
2023-02-03T12:06:55.340Z,5.44
2023-02-03T12:09:21.706Z,5.55
2023-02-03T12:11:48.230Z,5.37
2023-02-03T12:14:14.577Z,5.22
2023-02-03T12:16:40.996Z,5.24
2023-02-03T12:19:07.409Z,5.57
2023-02-03T12:21:33.858Z,5.43
2023-02-03T12:24:00.220Z,5.93
2023-02-03T12:26:26.589Z,5.27
2023-02-03T12:28:52.953Z,5.89
2023-02-03T12:31:19.446Z,5.40
2023-02-03T12:33:45.908Z,5.89
2023-02-03T12:36:12.298Z,6.01
2023-02-03T12:38:38.685Z,5.93
2023-02-03T12:41:06.103Z,6.66
2023-02-03T12:43:32.477Z,6.52
2023-02-03T12:45:58.911Z,5.91
2023-02-03T12:48:25.344Z,6.08
2023-02-03T12:50:51.701Z,6.08
2023-02-03T12:53:18.068Z,6.19
2023-02-03T12:55:44.457Z,7.07
2023-02-03T12:58:10.892Z,6.01
2023-02-03T13:00:37.283Z,5.28
2023-02-03T13:03:03.709Z,5.76
2023-02-03T13:05:30.073Z,5.72
2023-02-03T13:07:56.433Z,5.84
2023-02-03T13:10:22.805Z,5.74
2023-02-03T13:12:49.190Z,5.56
2023-02-03T13:15:15.555Z,5.45
2023-02-03T13:17:41.929Z,5.63
2023-02-03T13:20:08.280Z,5.59
2023-02-03T13:22:34.653Z,5.52
2023-02-03T13:25:01.030Z,5.27
2023-02-03T13:27:27.426Z,5.41
2023-02-03T13:29:53.840Z,5.38
2023-02-03T13:32:20.246Z,5.20
2023-02-03T13:34:46.644Z,5.19
2023-02-03T13:37:13.005Z,5.39
2023-02-03T13:39:39.444Z,5.28
2023-02-03T13:42:05.797Z,5.59
2023-02-03T13:44:32.168Z,5.80
2023-02-03T13:46:58.567Z,5.31
2023-02-03T13:49:24.934Z,5.39
2023-02-03T13:51:51.832Z,5.09
2023-02-03T13:54:18.222Z,5.05
2023-02-03T13:56:44.593Z,5.17
2023-02-03T13:59:10.985Z,4.78
2023-02-03T14:01:37.359Z,4.67
2023-02-03T14:04:03.864Z,4.74
2023-02-03T14:06:30.307Z,4.76
2023-02-03T14:08:56.688Z,4.64
2023-02-03T14:11:23.068Z,4.19
2023-02-03T14:13:49.465Z,4.40
2023-02-03T14:16:15.880Z,4.56
2023-02-03T14:18:42.307Z,4.51
2023-02-03T14:21:08.710Z,4.90
2023-02-03T14:23:35.078Z,4.65
2023-02-03T14:26:01.478Z,4.44
2023-02-03T14:28:27.882Z,4.31
2023-02-03T14:30:54.401Z,4.38
2023-02-03T14:33:20.884Z,4.18
2023-02-03T14:35:47.262Z,4.11
2023-02-03T14:38:13.671Z,4.59
2023-02-03T14:40:40.041Z,4.39
2023-02-03T14:43:11.082Z,4.20
2023-02-03T14:45:38.396Z,4.30
2023-02-03T14:48:04.778Z,4.14
2023-02-03T14:50:31.166Z,3.85
2023-02-03T14:52:57.544Z,3.81
2023-02-03T14:55:23.943Z,3.71
2023-02-03T14:57:50.315Z,3.80
2023-02-03T15:00:16.761Z,3.55
2023-02-03T15:02:43.139Z,3.47
2023-02-03T15:05:09.625Z,3.70
2023-02-03T15:07:36.040Z,4.02
2023-02-03T15:10:02.453Z,3.77
2023-02-03T15:12:28.856Z,4.02
2023-02-03T15:14:55.263Z,3.98
2023-02-03T15:17:21.636Z,4.20
2023-02-03T15:19:48.046Z,4.11
2023-02-03T15:22:14.424Z,3.94
2023-02-03T15:24:40.812Z,3.74
2023-02-03T15:27:07.196Z,3.78
2023-02-03T15:29:33.561Z,4.01
2023-02-03T15:31:59.955Z,4.09
2023-02-03T15:34:26.347Z,3.87
2023-02-03T15:36:52.786Z,3.77
2023-02-03T15:39:19.315Z,3.90
2023-02-03T15:41:45.714Z,3.94
2023-02-03T15:44:12.133Z,4.13
2023-02-03T15:46:38.626Z,4.37
2023-02-03T15:49:05.011Z,4.06
2023-02-03T15:51:31.370Z,3.86
2023-02-03T15:53:57.757Z,4.12
2023-02-03T15:56:24.160Z,4.55
2023-02-03T15:58:50.533Z,4.38
2023-02-03T16:01:18.168Z,4.67
2023-02-03T16:03:44.684Z,4.25
2023-02-03T16:06:11.070Z,4.69
2023-02-03T16:08:37.468Z,6.25
2023-02-03T16:11:03.853Z,4.77
2023-02-03T16:13:30.217Z,4.15
2023-02-03T16:15:56.715Z,4.08
2023-02-03T16:18:23.124Z,4.74
2023-02-03T16:20:49.536Z,4.55
2023-02-03T16:23:15.929Z,4.80
2023-02-03T16:25:42.312Z,4.67
2023-02-03T16:28:08.763Z,4.23
2023-02-03T16:30:35.198Z,4.11
2023-02-03T16:33:01.607Z,4.33
2023-02-03T16:35:28.581Z,4.63
2023-02-03T16:37:55.309Z,4.75
2023-02-03T16:40:21.700Z,4.79
2023-02-03T16:42:48.141Z,4.90
2023-02-03T16:45:17.262Z,4.95
2023-02-03T16:47:43.884Z,5.56
2023-02-03T16:50:10.283Z,5.68
2023-02-03T16:52:36.669Z,5.34
2023-02-03T16:55:03.046Z,5.78
2023-02-03T16:57:29.420Z,6.05
2023-02-03T16:59:55.807Z,6.02
2023-02-03T17:02:22.193Z,5.93
2023-02-03T17:04:48.602Z,5.72
2023-02-03T17:07:15.040Z,5.70
2023-02-03T17:09:41.394Z,5.94
2023-02-03T17:12:07.757Z,6.09
2023-02-03T17:14:34.158Z,6.15
2023-02-03T17:17:00.542Z,6.09
2023-02-03T17:19:26.926Z,6.11
2023-02-03T17:21:53.315Z,6.05
2023-02-03T17:24:19.777Z,5.94
2023-02-03T17:26:46.137Z,5.24
2023-02-03T17:29:12.502Z,5.57
2023-02-03T17:31:38.904Z,5.93
2023-02-03T17:34:05.284Z,5.90
2023-02-03T17:36:31.695Z,6.17
2023-02-03T17:55:22.434Z,6.96
2023-02-03T17:57:48.832Z,6.56
2023-02-03T18:00:15.227Z,6.06
2023-02-03T18:02:41.647Z,5.53
2023-02-03T18:05:08.049Z,5.20
2023-02-03T18:07:34.408Z,5.07
2023-02-03T18:10:00.782Z,4.53
2023-02-03T18:12:27.188Z,4.46
2023-02-03T18:14:53.573Z,3.95
2023-02-03T18:17:19.931Z,4.09
2023-02-03T18:19:49.275Z,4.48
2023-02-03T18:22:21.339Z,4.16
2023-02-03T18:24:47.771Z,4.24
2023-02-03T18:27:14.218Z,4.52
2023-02-03T18:29:40.565Z,4.39
2023-02-03T18:32:06.954Z,4.50
2023-02-03T18:34:33.301Z,4.97
2023-02-03T18:36:59.677Z,5.12
2023-02-03T18:39:26.062Z,5.26
2023-02-03T18:41:52.426Z,5.04
2023-02-03T18:44:18.844Z,5.35
2023-02-03T18:46:45.243Z,5.22
2023-02-03T18:49:11.666Z,5.45
2023-02-03T18:51:38.047Z,6.15
2023-02-03T18:54:04.412Z,6.13
2023-02-03T18:56:30.903Z,5.88
2023-02-03T18:58:57.318Z,5.75
2023-02-03T19:01:23.744Z,5.57
2023-02-03T19:03:50.153Z,5.73
2023-02-03T19:06:16.520Z,5.98
2023-02-03T19:08:42.934Z,5.87
2023-02-03T19:11:09.300Z,5.37
2023-02-03T19:13:35.750Z,4.76
2023-02-03T19:16:02.232Z,4.43
2023-02-03T19:18:28.795Z,4.03
2023-02-03T19:20:55.158Z,3.50
2023-02-03T19:23:23.223Z,3.92
2023-02-03T19:25:50.318Z,3.76
2023-02-03T19:28:20.209Z,3.38
2023-02-03T19:31:00.027Z,3.33
2023-02-03T19:33:32.258Z,3.47
2023-02-03T19:35:58.643Z,3.53
2023-02-03T19:38:25.011Z,3.31
2023-02-03T19:40:51.357Z,3.39
2023-02-03T19:43:17.771Z,3.63
2023-02-03T19:45:44.209Z,3.34
2023-02-03T19:48:10.575Z,3.36
2023-02-03T19:50:37.009Z,4.16
2023-02-03T19:53:03.401Z,3.55
2023-02-03T19:55:29.877Z,3.58
2023-02-03T19:57:56.258Z,3.14
2023-02-03T20:00:22.639Z,3.13
2023-02-03T20:02:49.079Z,3.41
2023-02-03T20:05:15.511Z,3.16
2023-02-03T20:07:41.976Z,3.23
2023-02-03T20:10:08.357Z,2.80
2023-02-03T20:12:34.825Z,2.94
2023-02-03T20:15:01.252Z,3.13
2023-02-03T20:17:27.608Z,2.87
2023-02-03T20:19:53.982Z,3.05
2023-02-03T20:22:20.388Z,3.01
2023-02-03T20:24:46.755Z,2.95
2023-02-03T20:27:13.125Z,2.99
2023-02-03T20:29:39.507Z,3.12
2023-02-03T20:32:06.017Z,3.07
2023-02-03T20:34:32.531Z,3.26
2023-02-03T20:36:58.946Z,2.85
2023-02-03T20:39:25.442Z,3.29
2023-02-03T20:41:51.830Z,3.62
2023-02-03T20:44:18.293Z,3.48
2023-02-03T20:46:44.673Z,3.17
2023-02-03T20:49:11.069Z,3.51
2023-02-03T20:51:37.451Z,3.46
2023-02-03T20:54:03.832Z,3.63
2023-02-03T20:56:30.210Z,3.73
2023-02-03T20:58:56.703Z,3.68
2023-02-03T21:01:23.122Z,3.34
2023-02-03T21:03:49.587Z,3.50
2023-02-03T21:06:15.992Z,3.36
2023-02-03T21:08:42.347Z,3.51
2023-02-03T21:11:08.806Z,3.37
2023-02-03T21:13:35.211Z,3.56
2023-02-03T21:16:01.653Z,3.96
2023-02-03T21:18:29.552Z,4.69
2023-02-03T21:20:55.970Z,8.32
2023-02-03T21:23:22.361Z,3.66
2023-02-03T21:25:48.823Z,3.39
2023-02-03T21:28:15.328Z,3.88
2023-02-03T21:30:41.752Z,3.81
2023-02-03T21:33:08.166Z,3.58
2023-02-03T21:35:34.531Z,2.99
2023-02-03T21:38:00.896Z,2.63
2023-02-03T21:40:27.317Z,2.72
2023-02-03T21:42:53.672Z,2.45
2023-02-03T21:45:20.139Z,2.69
2023-02-03T21:47:46.494Z,2.34
2023-02-03T21:50:12.852Z,2.52
2023-02-03T21:52:39.229Z,2.31
2023-02-03T21:55:05.609Z,2.33
2023-02-03T21:57:32.045Z,2.28
2023-02-03T21:59:58.401Z,2.44
2023-02-03T22:02:24.795Z,2.46
2023-02-03T22:04:51.198Z,2.77
2023-02-03T22:07:17.554Z,2.92
2023-02-03T22:09:43.926Z,3.13
2023-02-03T22:12:10.302Z,2.78
2023-02-03T22:14:36.696Z,2.90
2023-02-03T22:17:03.054Z,2.73
2023-02-03T22:19:29.496Z,2.69
2023-02-03T22:21:55.845Z,2.63
2023-02-03T22:24:22.231Z,2.59
2023-02-03T22:26:48.637Z,2.44
2023-02-03T22:29:15.001Z,2.58
2023-02-03T22:31:41.471Z,2.29
2023-02-03T22:34:07.907Z,2.36
2023-02-03T22:36:34.272Z,2.63
2023-02-03T22:39:00.641Z,2.60
2023-02-03T22:41:27.020Z,2.73
2023-02-03T22:43:53.382Z,2.48
2023-02-03T22:46:19.777Z,2.73
2023-02-03T22:48:46.168Z,2.97
2023-02-03T22:51:12.516Z,3.19
2023-02-03T22:53:38.875Z,3.14
2023-02-03T22:56:05.260Z,2.86
2023-02-03T22:58:31.651Z,2.49
2023-02-03T23:00:58.041Z,2.45
2023-02-03T23:03:24.455Z,2.40
2023-02-03T23:05:50.844Z,2.29
2023-02-03T23:08:17.206Z,2.38
2023-02-03T23:10:43.644Z,2.43
2023-02-03T23:13:10.008Z,2.35
2023-02-03T23:15:36.401Z,2.32
2023-02-03T23:18:02.853Z,2.22
2023-02-03T23:20:29.604Z,2.15
2023-02-03T23:22:56.231Z,2.27
2023-02-03T23:25:22.610Z,2.09
2023-02-03T23:27:49.006Z,2.36
2023-02-03T23:30:15.423Z,2.01
2023-02-03T23:32:41.799Z,2.16
2023-02-03T23:35:08.154Z,1.92
2023-02-03T23:37:34.580Z,2.09
2023-02-03T23:40:00.965Z,1.76
2023-02-03T23:42:27.337Z,1.77
2023-02-03T23:44:53.749Z,1.77
2023-02-03T23:47:20.130Z,1.74
2023-02-03T23:49:46.515Z,1.59
2023-02-03T23:52:12.873Z,1.64
2023-02-03T23:54:39.250Z,1.66
2023-02-03T23:57:05.613Z,1.55
2023-02-03T23:59:31.971Z,1.90
